Time;durP1;ratioP1;P1;durP2;ratioP2;P2;SDS_P1;SDS_P2;PMS_P1;PMS_P2;Temp;Humidity;BMP_temperature;BMP_pressure;BME280_temperature;BME280_humidity;BME280_pressure;Samples;Min_cycle;Max_cycle;Signal;HPM_P1;HPM_P2
2022/03/05 00:03:21;;;;;;;;;;;;;;;;;;10245223;28;20066;-70
2022/03/05 00:08:26;;;;;;;9.23;3.60;;;;;;;;;;10223592;29;19930;-70
2022/03/05 00:13:28;;;;;;;;;;;;;;;;;;10241868;28;20043;-70
2022/03/05 00:18:31;;;;;;;11.47;3.40;;;;;;;;;;10240835;29;19922;-70
2022/03/05 00:23:36;;;;;;;16.30;4.20;;;;;;;;;;10243482;28;20098;-70
2022/03/05 00:28:39;;;;;;;16.27;4.73;;;;;;;;;;10233068;28;20078;-70
2022/03/05 00:33:42;;;;;;;12.30;4.07;;;;;;;;;;10241917;28;20046;-69
2022/03/05 00:38:46;;;;;;;12.43;5.33;;;;;;;;;;10239576;28;20042;-70
2022/03/05 00:43:50;;;;;;;9.83;4.80;;;;;;;;;;10244818;28;20043;-70
2022/03/05 00:48:52;;;;;;;10.47;4.23;;;;;;;;;;10259962;28;20035;-70
2022/03/05 00:53:57;;;;;;;13.07;4.43;;;;;;;;;;10250627;28;20169;-71
2022/03/05 00:59:00;;;;;;;13.10;3.97;;;;;;;;;;10259400;29;20554;-71
2022/03/05 01:04:03;;;;;;;13.37;4.73;;;;;;;;;;10233041;28;20338;-70
2022/03/05 01:09:07;;;;;;;17.30;4.47;;;;;;;;;;10227438;29;20039;-70
2022/03/05 01:14:10;;;;;;;11.57;4.53;;;;;;;;;;10246209;28;20405;-71
2022/03/05 01:19:13;;;;;;;15.03;4.07;;;;;;;;;;10248553;28;20043;-71
2022/03/05 01:24:17;;;;;;;17.43;4.90;;;;;;;;;;10231254;28;20079;-70
2022/03/05 01:29:20;;;;;;;13.50;4.85;;;;;;;;;;10210668;28;20147;-70
2022/03/05 01:34:23;;;;;;;17.83;4.40;;;;;;;;;;10246054;28;20680;-71
2022/03/05 01:39:27;;;;;;;14.83;4.00;;;;;;;;;;10241941;28;20126;-71
2022/03/05 01:44:31;;;;;;;10.10;3.93;;;;;;;;;;10231926;28;20073;-71
2022/03/05 01:49:34;;;;;;;15.10;4.85;;;;;;;;;;10243382;28;20039;-71
2022/03/05 01:54:40;;;;;;;12.10;4.72;;;;;;;;;;10224585;28;20063;-71
2022/03/05 01:59:44;;;;;;;10.77;4.47;;;;;;;;;;10259756;28;20111;-71
2022/03/05 02:04:47;;;;;;;12.80;3.77;;;;;;;;;;10230542;28;20066;-71
2022/03/05 02:09:51;;;;;;;8.93;2.80;;;;;;;;;;10245027;28;20052;-70
2022/03/05 02:14:54;;;;;;;;;;;;;;;;;;10241894;28;20044;-70
2022/03/05 02:19:58;;;;;;;9.27;2.97;;;;;;;;;;10227183;29;20033;-70
2022/03/05 02:25:04;;;;;;;11.20;4.03;;;;;;;;;;10222760;28;20519;-70
2022/03/05 02:30:08;;;;;;;11.67;4.30;;;;;;;;;;10222791;28;20184;-70
2022/03/05 02:35:12;;;;;;;;;;;;;;;;;;10242150;28;20496;-70
2022/03/05 02:40:16;;;;;;;7.80;2.83;;;;;;;;;;10240629;28;19977;-70
2022/03/05 02:45:19;;;;;;;9.95;3.58;;;;;;;;;;10219399;28;20051;-70
2022/03/05 02:50:22;;;;;;;15.57;4.10;;;;;;;;;;10221510;28;20424;-71
2022/03/05 02:55:27;;;;;;;12.10;4.70;;;;;;;;;;10221373;28;20038;-70
2022/03/05 03:00:29;;;;;;;;;;;;;;;;;;10218027;29;20075;-70
2022/03/05 03:05:32;;;;;;;11.07;3.73;;;;;;;;;;10238514;28;20373;-70
2022/03/05 03:10:36;;;;;;;11.20;3.90;;;;;;;;;;10239581;28;20058;-70
2022/03/05 03:15:39;;;;;;;;;;;;;;;;;;10242127;28;20152;-71
2022/03/05 03:20:43;;;;;;;11.87;3.07;;;;;;;;;;10239482;29;19969;-70
2022/03/05 03:25:47;;;;;;;9.67;3.20;;;;;;;;;;10221366;29;20044;-71
2022/03/05 03:30:50;;;;;;;8.07;3.25;;;;;;;;;;10223695;29;20504;-70
2022/03/05 03:35:53;;;;;;;11.50;4.17;;;;;;;;;;10240834;28;20062;-71
2022/03/05 03:40:57;;;;;;;9.20;3.57;;;;;;;;;;10241677;28;20049;-71
2022/03/05 03:46:00;;;;;;;14.82;3.53;;;;;;;;;;10254181;23;20402;-70
2022/03/05 03:51:03;;;;;;;9.33;2.40;;;;;;;;;;10225884;29;20337;-72
2022/03/05 03:56:08;;;;;;;3.45;1.65;;;;;;;;;;10225862;28;20043;-71
2022/03/05 04:01:11;;;;;;;11.83;3.83;;;;;;;;;;10242784;28;20040;-73
2022/03/05 04:06:14;;;;;;;14.00;4.43;;;;;;;;;;10240683;28;20046;-71
2022/03/05 04:11:19;;;;;;;15.23;4.20;;;;;;;;;;10222825;29;20047;-71
2022/03/05 04:16:23;;;;;;;13.93;4.10;;;;;;;;;;10243620;28;20039;-71
2022/03/05 04:21:26;;;;;;;12.00;3.97;;;;;;;;;;10235791;28;20043;-71
2022/03/05 04:26:30;;;;;;;11.00;4.03;;;;;;;;;;10236711;28;20512;-71
2022/03/05 04:31:33;;;;;;;14.13;3.70;;;;;;;;;;10237228;29;20039;-72
2022/03/05 04:36:37;;;;;;;11.68;4.38;;;;;;;;;;10256154;28;20039;-71
2022/03/05 04:41:41;;;;;;;11.13;4.07;;;;;;;;;;10235064;28;20069;-71
2022/03/05 04:46:44;;;;;;;15.53;4.73;;;;;;;;;;10253670;28;20027;-73
2022/03/05 04:51:50;;;;;;;9.17;3.17;;;;;;;;;;10241198;28;20527;-72
2022/03/05 04:56:54;;;;;;;10.70;3.23;;;;;;;;;;10236126;28;20042;-70
2022/03/05 05:01:58;;;;;;;10.23;3.43;;;;;;;;;;10230799;29;20051;-70
2022/03/05 05:07:01;;;;;;;12.03;3.33;;;;;;;;;;10253667;28;20117;-71
2022/03/05 05:12:06;;;;;;;13.47;4.17;;;;;;;;;;10252807;28;20039;-71
2022/03/05 05:17:09;;;;;;;11.23;3.37;;;;;;;;;;10240511;29;20098;-72
2022/03/05 05:22:12;;;;;;;11.97;3.37;;;;;;;;;;10248730;28;20050;-72
2022/03/05 05:27:16;;;;;;;7.37;3.43;;;;;;;;;;10241580;29;20051;-70
2022/03/05 05:32:20;;;;;;;7.20;3.00;;;;;;;;;;10234838;28;20040;-70
2022/03/05 05:37:23;;;;;;;14.40;4.10;;;;;;;;;;10250143;28;20046;-72
2022/03/05 05:42:28;;;;;;;9.97;3.70;;;;;;;;;;10239758;29;20043;-72
2022/03/05 05:47:31;;;;;;;10.27;3.60;;;;;;;;;;10250482;28;20047;-72
2022/03/05 05:52:34;;;;;;;12.75;3.55;;;;;;;;;;10248946;29;20061;-71
2022/03/05 05:57:39;;;;;;;7.43;2.63;;;;;;;;;;10226379;29;20035;-71
2022/03/05 06:02:42;;;;;;;18.35;4.30;;;;;;;;;;10231368;29;20388;-72
2022/03/05 06:07:45;;;;;;;9.20;3.37;;;;;;;;;;10232580;28;20492;-71
2022/03/05 06:12:49;;;;;;;10.17;3.77;;;;;;;;;;10233850;29;20054;-70
2022/03/05 06:17:54;;;;;;;;;;;;;;;;;;10259360;28;20043;-71
2022/03/05 06:22:57;;;;;;;5.30;3.27;;;;;;;;;;10235736;28;19973;-70
2022/03/05 06:28:02;;;;;;;8.55;2.95;;;;;;;;;;10230085;28;20395;-71
2022/03/05 06:33:05;;;;;;;;;;;;;;;;;;10246955;29;20039;-67
2022/03/05 06:38:08;;;;;;;16.40;5.83;;;;;;;;;;10230161;28;19977;-68
2022/03/05 06:43:12;;;;;;;25.57;10.90;;;;;;;;;;10243272;28;20524;-71
2022/03/05 06:48:15;;;;;;;27.37;11.03;;;;;;;;;;10212035;29;20422;-71
2022/03/05 06:53:18;;;;;;;22.98;8.63;;;;;;;;;;10247885;28;20051;-71
2022/03/05 06:58:20;;;;;;;;;;;;;;;;;;10231912;29;20078;-71
2022/03/05 07:03:23;;;;;;;;;;;;;;;;;;10231420;29;20379;-72
2022/03/05 07:08:29;;;;;;;22.63;7.57;;;;;;;;;;10245956;28;20409;-72
2022/03/05 07:13:31;;;;;;;21.23;8.05;;;;;;;;;;10245768;29;20035;-71
2022/03/05 07:18:34;;;;;;;18.95;8.88;;;;;;;;;;10247235;28;20458;-72
2022/03/05 07:23:38;;;;;;;24.42;8.85;;;;;;;;;;10233991;29;21575;-74
2022/03/05 07:28:41;;;;;;;22.92;9.25;;;;;;;;;;10242270;29;20067;-71
2022/03/05 07:33:47;;;;;;;24.35;9.48;;;;;;;;;;10242803;28;20522;-71
2022/03/05 07:38:51;;;;;;;24.23;9.23;;;;;;;;;;10228140;29;20031;-72
2022/03/05 07:43:54;;;;;;;26.08;10.88;;;;;;;;;;10234196;28;20549;-70
2022/03/05 07:48:57;;;;;;;23.98;10.70;;;;;;;;;;10244774;28;20043;-71
2022/03/05 07:54:01;;;;;;;25.10;11.27;;;;;;;;;;10234305;28;20142;-70
2022/03/05 07:59:04;;;;;;;24.77;11.45;;;;;;;;;;10221150;28;20519;-72
2022/03/05 08:04:07;;;;;;;23.40;11.65;;;;;;;;;;10242471;28;20476;-72
2022/03/05 08:09:11;;;;;;;28.33;12.45;;;;;;;;;;10225471;28;20121;-72
2022/03/05 08:14:14;;;;;;;24.90;11.85;;;;;;;;;;10230516;28;20054;-70
2022/03/05 08:19:16;;;;;;;24.48;11.00;;;;;;;;;;10223569;29;20099;-72
2022/03/05 08:24:21;;;;;;;26.08;11.73;;;;;;;;;;10217473;28;20526;-72
2022/03/05 08:29:24;;;;;;;19.50;9.07;;;;;;;;;;10238650;29;20031;-74
2022/03/05 08:34:27;;;;;;;;;;;;;;;;;;10239365;28;20102;-72
2022/03/05 08:39:31;;;;;;;24.88;11.77;;;;;;;;;;10222842;29;19926;-73
2022/03/05 08:44:34;;;;;;;26.58;11.95;;;;;;;;;;10237578;28;20127;-70
2022/03/05 08:49:37;;;;;;;23.65;13.05;;;;;;;;;;10218707;28;20082;-68
2022/03/05 08:54:42;;;;;;;25.27;13.40;;;;;;;;;;10214681;28;20075;-70
2022/03/05 08:59:45;;;;;;;23.40;13.10;;;;;;;;;;10221089;28;20055;-71
2022/03/05 09:04:47;;;;;;;;;;;;;;;;;;10247551;28;20047;-73
2022/03/05 09:09:52;;;;;;;22.25;11.85;;;;;;;;;;10248429;28;20026;-71
2022/03/05 09:14:56;;;;;;;24.75;12.23;;;;;;;;;;10244955;28;20043;-69
2022/03/05 09:20:00;;;;;;;22.02;10.25;;;;;;;;;;10237075;29;20066;-71
2022/03/05 09:25:05;;;;;;;21.40;10.48;;;;;;;;;;10242553;28;20043;-70
2022/03/05 09:30:09;;;;;;;19.10;10.20;;;;;;;;;;10226856;29;20042;-70
2022/03/05 09:35:12;;;;;;;22.48;10.75;;;;;;;;;;10241187;28;20550;-71
2022/03/05 09:40:15;;;;;;;;;;;;;;;;;;10227460;29;20071;-71
2022/03/05 09:45:19;;;;;;;15.60;8.03;;;;;;;;;;10227853;28;19932;-72
2022/03/05 09:50:22;;;;;;;23.13;13.10;;;;;;;;;;10242908;29;20043;-71
2022/03/05 09:55:25;;;;;;;19.42;10.07;;;;;;;;;;10240921;28;20559;-69
2022/03/05 10:00:30;;;;;;;38.75;9.95;;;;;;;;;;10228067;29;20058;-70
2022/03/05 10:05:34;;;;;;;;;;;;;;;;;;10229638;28;20043;-70
2022/03/05 10:10:37;;;;;;;;;;;;;;;;;;10224683;29;19926;-71
2022/03/05 10:15:40;;;;;;;;;;;;;;;;;;10232569;28;20079;-70
2022/03/05 10:20:45;;;;;;;15.13;5.45;;;;;;;;;;10241034;28;19922;-70
2022/03/05 10:25:49;;;;;;;14.10;4.85;;;;;;;;;;10247958;28;20074;-69
2022/03/05 10:30:58;;;;;;;16.98;6.00;;;;;;;;;;10222633;29;20054;-71
2022/03/05 10:36:04;;;;;;;16.80;7.18;;;;;;;;;;10226282;28;20457;-71
2022/03/05 10:41:06;;;;;;;18.50;7.15;;;;;;;;;;10238909;29;20059;-72
2022/03/05 10:46:09;;;;;;;18.85;8.05;;;;;;;;;;10224529;28;20074;-70
2022/03/05 10:51:14;;;;;;;15.80;6.20;;;;;;;;;;10241033;28;20460;-70
2022/03/05 10:56:21;;;;;;;18.30;6.55;;;;;;;;;;10223053;28;20062;-70
2022/03/05 11:01:24;;;;;;;17.30;6.82;;;;;;;;;;10239872;29;20046;-70
2022/03/05 11:06:29;;;;;;;20.63;7.47;;;;;;;;;;10228381;29;20043;-71
2022/03/05 11:11:32;;;;;;;9.15;4.05;;;;;;;;;;10241775;29;20039;-71
2022/03/05 11:16:35;;;;;;;12.30;4.90;;;;;;;;;;10223647;28;20051;-70
2022/03/05 11:21:39;;;;;;;15.80;6.82;;;;;;;;;;10240256;29;20562;-70
2022/03/05 11:26:42;;;;;;;13.52;5.50;;;;;;;;;;10242739;28;20523;-71
2022/03/05 11:32:12;;;;;;;12.80;5.47;;;;;;;;;;10227792;28;20534;-71
2022/03/05 11:37:17;;;;;;;16.77;6.53;;;;;;;;;;10240681;28;20035;-71
2022/03/05 11:42:21;;;;;;;;;;;;;;;;;;10239994;29;20453;-71
2022/03/05 11:47:25;;;;;;;11.98;6.25;;;;;;;;;;10237807;28;19925;-73
2022/03/05 11:52:55;;;;;;;12.65;6.13;;;;;;;;;;10218268;29;20074;-71
2022/03/05 11:58:17;;;;;;;14.30;6.93;;;;;;;;;;10219513;28;20653;-72
2022/03/05 12:03:23;;;;;;;14.18;7.03;;;;;;;;;;10219169;29;20063;-73
2022/03/05 12:08:43;;;;;;;15.20;6.88;;;;;;;;;;10235997;28;20050;-71
2022/03/05 12:13:52;;;;;;;14.05;5.85;;;;;;;;;;10219635;29;20543;-71
2022/03/05 12:18:57;;;;;;;9.35;5.30;;;;;;;;;;10216346;28;20507;-71
2022/03/05 12:24:01;;;;;;;11.75;6.00;;;;;;;;;;10224878;28;20039;-70
2022/03/05 12:29:05;;;;;;;10.25;5.22;;;;;;;;;;10240791;28;20130;-72
2022/03/05 12:34:09;;;;;;;19.45;10.02;;;;;;;;;;10227269;28;20059;-70
2022/03/05 12:39:12;;;;;;;;;;;;;;;;;;10238906;28;20086;-69
2022/03/05 12:44:17;;;;;;;10.57;5.60;;;;;;;;;;10222887;28;19926;-70
2022/03/05 12:49:19;;;;;;;11.13;5.53;;;;;;;;;;10237714;28;21562;-72
2022/03/05 12:54:22;;;;;;;;;;;;;;;;;;10259372;28;20054;-69
2022/03/05 12:59:24;;;;;;;;;;;;;;;;;;10247752;28;20012;-70
2022/03/05 13:04:31;;;;;;;;;;;;;;;;;;10252311;28;20393;-70
2022/03/05 13:09:34;;;;;;;;;;;;;;;;;;10258416;28;19922;-71
2022/03/05 13:14:37;;;;;;;;;;;;;;;;;;10246361;28;20068;-70
2022/03/05 13:19:42;;;;;;;10.68;4.30;;;;;;;;;;10245664;28;19930;-69
2022/03/05 13:24:50;;;;;;;12.55;5.13;;;;;;;;;;10249502;28;20515;-71
2022/03/05 13:29:53;;;;;;;13.30;5.40;;;;;;;;;;10261435;28;20131;-70
2022/03/05 13:35:03;;;;;;;11.88;5.35;;;;;;;;;;10250082;28;20118;-71
2022/03/05 13:40:07;;;;;;;9.48;3.97;;;;;;;;;;10242382;28;20122;-72
2022/03/05 13:45:11;;;;;;;9.20;4.10;;;;;;;;;;10236049;28;20575;-72
2022/03/05 13:50:16;;;;;;;10.18;4.68;;;;;;;;;;10225229;28;20546;-71
2022/03/05 13:55:20;;;;;;;9.90;4.75;;;;;;;;;;10244528;28;20047;-71
2022/03/05 14:00:24;;;;;;;20.10;9.80;;;;;;;;;;10241228;28;20033;-70
2022/03/05 14:05:27;;;;;;;;;;;;;;;;;;10223815;28;20102;-68
2022/03/05 14:10:30;;;;;;;;;;;;;;;;;;10243232;29;19977;-69
2022/03/05 14:15:33;;;;;;;;;;;;;;;;;;10245228;29;19922;-70
2022/03/05 14:20:35;;;;;;;;;;;;;;;;;;10225928;29;19922;-70
2022/03/05 14:25:38;;;;;;;;;;;;;;;;;;10223517;29;19926;-73
2022/03/05 14:30:40;;;;;;;;;;;;;;;;;;10225065;28;20017;-71
2022/03/05 14:35:45;;;;;;;12.20;4.25;;;;;;;;;;10239340;29;20386;-71
2022/03/05 14:40:48;;;;;;;10.10;4.10;;;;;;;;;;10224621;28;20663;-70
2022/03/05 14:45:51;;;;;;;;;;;;;;;;;;10222892;28;20058;-70
2022/03/05 14:50:55;;;;;;;12.27;4.68;;;;;;;;;;10242145;28;20357;-69
2022/03/05 14:55:58;;;;;;;14.63;4.25;;;;;;;;;;10240997;28;20043;-70
2022/03/05 15:01:00;;;;;;;;;;;;;;;;;;10236484;28;20055;-70
2022/03/05 15:06:03;;;;;;;;;;;;;;;;;;10242169;28;20012;-72
2022/03/05 15:11:05;;;;;;;;;;;;;;;;;;10222486;28;19997;-72
2022/03/05 15:16:08;;;;;;;;;;;;;;;;;;10234248;28;19968;-70
2022/03/05 15:21:10;;;;;;;;;;;;;;;;;;10226854;28;19977;-69
2022/03/05 15:26:13;;;;;;;;;;;;;;;;;;10222463;28;19933;-70
2022/03/05 15:31:18;;;;;;;9.52;3.38;;;;;;;;;;10222249;28;19923;-71
2022/03/05 15:36:20;;;;;;;;;;;;;;;;;;10221054;28;20636;-70
2022/03/05 15:41:23;;;;;;;13.52;4.13;;;;;;;;;;10222176;29;20490;-71
2022/03/05 15:46:28;;;;;;;9.45;4.05;;;;;;;;;;10234630;28;20062;-71
2022/03/05 15:51:32;;;;;;;11.50;3.88;;;;;;;;;;10240823;28;20495;-69
2022/03/05 15:56:35;;;;;;;11.48;4.07;;;;;;;;;;10220066;28;20051;-71
2022/03/05 16:01:40;;;;;;;11.45;4.00;;;;;;;;;;10242731;28;20047;-70
2022/03/05 16:06:43;;;;;;;10.93;3.70;;;;;;;;;;10234481;28;20050;-71
2022/03/05 16:11:46;;;;;;;11.00;3.47;;;;;;;;;;10240140;29;20445;-70
2022/03/05 16:16:51;;;;;;;9.23;2.87;;;;;;;;;;10239209;28;20039;-70
2022/03/05 16:21:54;;;;;;;11.73;3.87;;;;;;;;;;10238840;28;20066;-70
2022/03/05 16:26:58;;;;;;;10.07;3.37;;;;;;;;;;10222821;28;20055;-71
2022/03/05 16:32:04;;;;;;;6.60;3.20;;;;;;;;;;10241673;28;20404;-72
2022/03/05 16:37:07;;;;;;;5.67;2.00;;;;;;;;;;10231496;28;20043;-70
2022/03/05 16:42:12;;;;;;;14.37;4.07;;;;;;;;;;10234265;28;20174;-70
2022/03/05 16:47:17;;;;;;;14.67;3.93;;;;;;;;;;10226090;28;20085;-70
2022/03/05 16:52:22;;;;;;;11.13;3.30;;;;;;;;;;10223370;29;20106;-72
2022/03/05 16:57:25;;;;;;;3.77;1.63;;;;;;;;;;10235006;28;20487;-73
2022/03/05 17:02:29;;;;;;;11.43;2.90;;;;;;;;;;10225639;28;20043;-69
2022/03/05 17:07:32;;;;;;;11.60;4.00;;;;;;;;;;10240994;28;20737;-70
2022/03/05 17:12:47;;;;;;;13.82;4.55;;;;;;;;;;10245229;28;20032;-70
2022/03/05 17:17:52;;;;;;;13.53;3.80;;;;;;;;;;10219143;29;20788;-71
2022/03/05 17:22:55;;;;;;;13.45;3.75;;;;;;;;;;10229220;28;20028;-70
2022/03/05 17:28:01;;;;;;;10.30;3.57;;;;;;;;;;10240617;28;20046;-70
2022/03/05 17:33:06;;;;;;;8.10;2.63;;;;;;;;;;10248632;29;20395;-72
2022/03/05 17:38:09;;;;;;;11.37;4.10;;;;;;;;;;10241858;28;20047;-69
2022/03/05 17:43:11;;;;;;;9.37;3.00;;;;;;;;;;10232681;28;20039;-71
2022/03/05 17:48:16;;;;;;;10.90;3.93;;;;;;;;;;10246767;28;20051;-70
2022/03/05 17:53:19;;;;;;;8.67;3.87;;;;;;;;;;10233716;28;20051;-69
2022/03/05 17:58:22;;;;;;;19.67;3.00;;;;;;;;;;10243842;28;20113;-71
2022/03/05 18:03:27;;;;;;;9.33;3.27;;;;;;;;;;10238459;28;20046;-71
2022/03/05 18:08:30;;;;;;;11.00;3.77;;;;;;;;;;10226951;28;20102;-69
2022/03/05 18:13:33;;;;;;;15.70;4.90;;;;;;;;;;10250720;28;20038;-71
2022/03/05 18:18:37;;;;;;;13.53;4.33;;;;;;;;;;10232700;29;20055;-72
2022/03/05 18:23:40;;;;;;;12.73;3.53;;;;;;;;;;10247831;28;20039;-71
2022/03/05 18:28:43;;;;;;;3.00;1.67;;;;;;;;;;10257757;28;20043;-70
2022/03/05 18:33:47;;;;;;;9.43;2.67;;;;;;;;;;10241375;28;20074;-72
2022/03/05 18:38:50;;;;;;;12.10;3.73;;;;;;;;;;10234818;28;20094;-71
2022/03/05 18:43:53;;;;;;;12.03;4.13;;;;;;;;;;10252837;28;20043;-71
2022/03/05 18:48:58;;;;;;;13.27;4.23;;;;;;;;;;10253619;28;20039;-72
2022/03/05 18:54:02;;;;;;;11.53;4.10;;;;;;;;;;10243875;28;20062;-68
2022/03/05 18:59:04;;;;;;;12.73;4.20;;;;;;;;;;10221348;29;20039;-71
2022/03/05 19:04:10;;;;;;;17.67;5.05;;;;;;;;;;10249025;28;20078;-69
2022/03/05 19:09:13;;;;;;;18.10;5.17;;;;;;;;;;10230095;28;20043;-72
2022/03/05 19:14:15;;;;;;;14.27;4.67;;;;;;;;;;10221667;28;20523;-70
2022/03/05 19:19:20;;;;;;;13.87;4.20;;;;;;;;;;10218344;28;20043;-71
2022/03/05 19:24:23;;;;;;;10.83;3.57;;;;;;;;;;10250980;28;20052;-70
2022/03/05 19:29:28;;;;;;;16.60;5.30;;;;;;;;;;10220982;29;20389;-70
2022/03/05 19:34:32;;;;;;;12.73;3.77;;;;;;;;;;10228857;28;20039;-71
2022/03/05 19:39:35;;;;;;;12.90;4.43;;;;;;;;;;10222680;28;20419;-71
2022/03/05 19:44:38;;;;;;;15.03;4.23;;;;;;;;;;10227359;28;20027;-69
2022/03/05 19:49:42;;;;;;;10.60;3.53;;;;;;;;;;10221303;29;20410;-69
2022/03/05 19:54:48;;;;;;;;;;;;;;;;;;10237814;28;20582;-70
2022/03/05 19:59:51;;;;;;;9.33;3.23;;;;;;;;;;10218149;28;19926;-72
2022/03/05 20:04:55;;;;;;;8.13;3.10;;;;;;;;;;10242609;28;20039;-71
2022/03/05 20:10:00;;;;;;;7.90;3.13;;;;;;;;;;10242971;28;20046;-73
2022/03/05 20:15:03;;;;;;;11.13;3.65;;;;;;;;;;10237531;28;20035;-71
2022/03/05 20:20:08;;;;;;;13.38;3.75;;;;;;;;;;10238127;29;20031;-70
2022/03/05 20:25:12;;;;;;;13.33;4.13;;;;;;;;;;10220423;28;20047;-69
2022/03/05 20:30:16;;;;;;;9.87;3.67;;;;;;;;;;10238951;28;20471;-72
2022/03/05 20:35:21;;;;;;;7.30;2.97;;;;;;;;;;10229590;28;20035;-72
2022/03/05 20:40:24;;;;;;;11.03;3.57;;;;;;;;;;10240863;28;20122;-69
2022/03/05 20:45:29;;;;;;;13.10;4.57;;;;;;;;;;10238643;28;20047;-71
2022/03/05 20:50:34;;;;;;;2.40;1.30;;;;;;;;;;10237791;28;20057;-70
2022/03/05 20:55:37;;;;;;;9.23;3.40;;;;;;;;;;10229969;28;20129;-71
2022/03/05 21:00:40;;;;;;;8.37;2.93;;;;;;;;;;10225433;28;20043;-72
2022/03/05 21:05:44;;;;;;;9.03;3.20;;;;;;;;;;10244105;28;20046;-67
2022/03/05 21:10:47;;;;;;;12.77;3.65;;;;;;;;;;10230452;28;20448;-71
2022/03/05 21:15:50;;;;;;;17.70;4.23;;;;;;;;;;10227693;28;20496;-71
2022/03/05 21:20:55;;;;;;;12.03;3.87;;;;;;;;;;10246469;28;20190;-72
2022/03/05 21:25:58;;;;;;;16.27;4.03;;;;;;;;;;10250726;23;20055;-73
2022/03/05 21:31:02;;;;;;;12.25;3.95;;;;;;;;;;10277953;28;20452;-73
2022/03/05 21:36:06;;;;;;;16.27;4.27;;;;;;;;;;10281451;28;20043;-73
2022/03/05 21:41:09;;;;;;;11.10;3.63;;;;;;;;;;10266002;28;20027;-75
2022/03/05 21:46:12;;;;;;;11.63;3.17;;;;;;;;;;10260551;28;20455;-74
2022/03/05 21:51:16;;;;;;;12.63;3.83;;;;;;;;;;10262332;28;20047;-74
2022/03/05 21:56:19;;;;;;;11.13;4.65;;;;;;;;;;10266965;28;20073;-75
2022/03/05 22:01:23;;;;;;;14.55;3.75;;;;;;;;;;10266718;28;20077;-75
2022/03/05 22:06:28;;;;;;;6.60;3.17;;;;;;;;;;10307671;28;20039;-74
2022/03/05 22:11:31;;;;;;;15.13;4.67;;;;;;;;;;10283825;28;20046;-73
2022/03/05 22:16:34;;;;;;;12.40;4.20;;;;;;;;;;10283704;28;20042;-73
2022/03/05 22:21:39;;;;;;;12.20;4.20;;;;;;;;;;10280327;28;20034;-73
2022/03/05 22:26:42;;;;;;;8.53;4.17;;;;;;;;;;10280313;28;20420;-74
2022/03/05 22:31:46;;;;;;;6.77;2.93;;;;;;;;;;10281050;28;20769;-73
2022/03/05 22:36:50;;;;;;;12.57;4.63;;;;;;;;;;10278686;28;20062;-74
2022/03/05 22:41:53;;;;;;;8.82;2.88;;;;;;;;;;10283125;28;20510;-73
2022/03/05 22:46:56;;;;;;;11.47;4.77;;;;;;;;;;10264514;28;20133;-74
2022/03/05 22:52:01;;;;;;;8.27;3.93;;;;;;;;;;10266726;28;20042;-73
2022/03/05 22:57:04;;;;;;;19.40;4.90;;;;;;;;;;10278352;28;20042;-72
2022/03/05 23:12:46;;;;;;;12.57;4.50;;;;;;;;;;10278918;28;20046;-73
2022/03/05 23:17:49;;;;;;;13.03;3.87;;;;;;;;;;10278728;28;20047;-74
2022/03/05 23:22:53;;;;;;;12.40;3.43;;;;;;;;;;10290904;28;20034;-74
2022/03/05 23:27:57;;;;;;;13.27;4.63;;;;;;;;;;10262552;28;20043;-74
2022/03/05 23:33:00;;;;;;;12.20;5.47;;;;;;;;;;10266572;28;20063;-74
2022/03/05 23:38:04;;;;;;;12.85;4.68;;;;;;;;;;10276943;28;20034;-74
2022/03/05 23:43:08;;;;;;;14.95;4.38;;;;;;;;;;10264894;28;20038;-74
2022/03/05 23:48:11;;;;;;;9.07;3.38;;;;;;;;;;10277964;28;20039;-73
2022/03/05 23:53:16;;;;;;;14.57;5.50;;;;;;;;;;10269621;28;20089;-74
2022/03/05 23:58:18;;;;;;;11.23;3.90;;;;;;;;;;10280955;28;20039;-75
